createdAt,value
2023-03-19T00:02:18.879Z,11.50
2023-03-19T00:04:53.301Z,11.40
2023-03-19T00:07:22.431Z,11.40
2023-03-19T00:09:50.536Z,11.40
2023-03-19T00:12:18.348Z,11.40
2023-03-19T00:14:46.187Z,11.40
2023-03-19T00:17:14.000Z,11.40
2023-03-19T00:19:42.010Z,11.40
2023-03-19T00:22:09.919Z,11.50
2023-03-19T00:24:39.103Z,11.50
2023-03-19T00:27:06.966Z,11.40
2023-03-19T00:29:35.099Z,11.40
2023-03-19T00:32:03.328Z,11.40
2023-03-19T00:34:31.246Z,11.40
2023-03-19T00:36:59.310Z,11.30
2023-03-19T00:39:27.293Z,11.30
2023-03-19T00:41:56.602Z,11.30
2023-03-19T00:44:24.557Z,11.20
2023-03-19T00:46:52.731Z,11.10
2023-03-19T00:49:21.031Z,11.10
2023-03-19T00:51:48.856Z,11.00
2023-03-19T00:54:16.845Z,10.90
2023-03-19T00:56:44.659Z,10.80
2023-03-19T00:59:13.807Z,10.80
2023-03-19T01:01:41.618Z,10.70
2023-03-19T01:04:11.032Z,10.60
2023-03-19T01:06:38.818Z,10.60
2023-03-19T01:09:07.341Z,10.50
2023-03-19T01:11:35.204Z,10.60
2023-03-19T01:14:03.036Z,10.50
2023-03-19T01:16:32.197Z,10.50
2023-03-19T01:18:59.953Z,10.50
2023-03-19T01:21:30.882Z,10.50
2023-03-19T01:23:59.394Z,10.50
2023-03-19T01:26:27.367Z,10.50
2023-03-19T01:28:55.784Z,10.40
2023-03-19T01:31:23.794Z,10.40
2023-03-19T01:33:52.908Z,10.50
2023-03-19T01:36:20.704Z,10.50
2023-03-19T01:38:48.562Z,10.50
2023-03-19T01:41:16.358Z,10.50
2023-03-19T01:43:44.114Z,10.50
2023-03-19T01:46:17.425Z,10.50
2023-03-19T01:48:47.909Z,10.50
2023-03-19T01:51:19.791Z,10.40
2023-03-19T01:53:50.845Z,10.40
2023-03-19T01:56:21.296Z,10.40
2023-03-19T01:58:54.287Z,10.40
2023-03-19T02:01:22.265Z,10.40
2023-03-19T02:03:52.665Z,10.30
2023-03-19T02:06:22.674Z,10.20
2023-03-19T02:08:52.374Z,10.20
2023-03-19T02:11:21.861Z,10.10
2023-03-19T02:13:49.669Z,10.00
2023-03-19T02:16:18.362Z,10.00
2023-03-19T02:18:46.406Z,10.00
2023-03-19T02:21:17.552Z,9.90
2023-03-19T02:23:54.180Z,9.80
2023-03-19T02:26:25.167Z,9.80
2023-03-19T02:28:54.425Z,9.70
2023-03-19T02:31:22.981Z,9.70
2023-03-19T02:34:05.187Z,9.70
2023-03-19T02:36:37.846Z,9.70
2023-03-19T02:39:08.614Z,9.70
2023-03-19T02:41:41.494Z,9.70
2023-03-19T02:44:12.952Z,9.70
2023-03-19T02:46:41.142Z,9.60
2023-03-19T02:49:09.097Z,9.60
2023-03-19T02:51:37.494Z,9.60
2023-03-19T02:54:05.890Z,9.50
2023-03-19T02:56:33.779Z,9.50
2023-03-19T02:59:02.985Z,9.40
2023-03-19T03:01:30.881Z,9.40
2023-03-19T03:03:58.694Z,9.30
2023-03-19T03:06:26.617Z,9.30
2023-03-19T03:08:54.468Z,9.30
2023-03-19T03:11:22.779Z,9.30
2023-03-19T03:13:50.589Z,9.30
2023-03-19T03:16:19.805Z,9.20
2023-03-19T03:18:47.563Z,9.20
2023-03-19T03:21:15.605Z,9.20
2023-03-19T03:23:43.468Z,9.20
2023-03-19T03:26:11.285Z,9.10
2023-03-19T03:28:39.300Z,9.10
2023-03-19T03:31:08.266Z,9.10
2023-03-19T03:33:37.788Z,9.10
2023-03-19T03:36:06.464Z,9.10
2023-03-19T03:38:35.100Z,9.10
2023-03-19T03:41:03.154Z,9.10
2023-03-19T03:43:30.918Z,9.10
2023-03-19T03:45:58.748Z,9.10
2023-03-19T03:48:26.566Z,9.00
2023-03-19T03:50:55.934Z,9.00
2023-03-19T03:53:23.703Z,9.10
2023-03-19T03:55:51.638Z,9.10
2023-03-19T03:58:19.873Z,9.10
2023-03-19T04:00:48.337Z,9.00
2023-03-19T04:03:17.208Z,9.00
2023-03-19T04:05:45.647Z,9.00
2023-03-19T04:08:15.942Z,9.00
2023-03-19T04:10:44.771Z,9.00
2023-03-19T04:13:13.030Z,9.00
2023-03-19T04:15:43.146Z,9.00
2023-03-19T04:18:11.286Z,9.00
2023-03-19T04:20:40.142Z,8.90
2023-03-19T04:23:08.350Z,8.90
2023-03-19T04:25:40.405Z,8.90
2023-03-19T04:28:08.997Z,8.90
2023-03-19T04:30:37.516Z,8.90
2023-03-19T04:33:06.917Z,8.90
2023-03-19T04:35:35.550Z,8.90
2023-03-19T04:38:04.098Z,9.00
2023-03-19T04:40:32.236Z,9.00
2023-03-19T04:43:01.522Z,9.10
2023-03-19T04:45:29.714Z,9.20
2023-03-19T04:47:58.234Z,9.20
2023-03-19T04:50:26.027Z,9.30
2023-03-19T04:52:53.756Z,9.50
2023-03-19T04:55:21.532Z,9.60
2023-03-19T04:57:49.255Z,9.70
2023-03-19T05:00:20.555Z,9.80
2023-03-19T05:02:48.393Z,9.90
2023-03-19T05:05:16.411Z,10.00
2023-03-19T05:07:44.177Z,10.10
2023-03-19T05:10:12.755Z,10.10
2023-03-19T05:12:41.142Z,10.20
2023-03-19T05:15:10.041Z,10.20
2023-03-19T05:17:39.137Z,10.20
2023-03-19T05:20:07.975Z,10.20
2023-03-19T05:22:35.824Z,10.20
2023-03-19T05:25:04.046Z,10.20
2023-03-19T05:27:31.886Z,10.20
2023-03-19T05:30:00.489Z,10.20
2023-03-19T05:32:28.357Z,10.20
2023-03-19T05:34:58.397Z,10.20
2023-03-19T05:37:26.594Z,10.10
2023-03-19T05:39:54.386Z,10.10
2023-03-19T05:42:22.186Z,10.10
2023-03-19T05:44:49.933Z,10.10
2023-03-19T05:47:18.039Z,10.10
2023-03-19T05:49:45.784Z,10.10
2023-03-19T05:52:15.238Z,10.10
2023-03-19T05:54:43.227Z,10.10
2023-03-19T05:57:13.405Z,10.10
2023-03-19T05:59:41.499Z,10.10
2023-03-19T06:02:09.457Z,10.10
2023-03-19T06:04:37.280Z,10.10
2023-03-19T06:07:05.418Z,10.20
2023-03-19T06:09:34.789Z,10.30
2023-03-19T06:12:02.907Z,10.30
2023-03-19T06:14:31.505Z,10.30
2023-03-19T06:16:59.287Z,10.40
2023-03-19T06:19:27.391Z,10.50
2023-03-19T06:21:55.099Z,10.50
2023-03-19T06:24:22.930Z,10.50
2023-03-19T06:26:52.314Z,10.60
2023-03-19T06:29:20.452Z,10.60
2023-03-19T06:31:48.641Z,10.70
2023-03-19T06:34:19.507Z,10.70
2023-03-19T06:36:47.289Z,10.70
2023-03-19T06:39:15.243Z,10.80
2023-03-19T06:41:43.157Z,10.90
2023-03-19T06:44:12.297Z,10.90
2023-03-19T06:46:40.091Z,11.00
2023-03-19T06:49:07.967Z,11.00
2023-03-19T06:51:35.848Z,11.10
2023-03-19T06:54:03.818Z,11.20
2023-03-19T06:56:31.613Z,11.30
2023-03-19T06:58:59.422Z,11.30
2023-03-19T07:01:28.905Z,11.40
2023-03-19T07:03:57.269Z,11.50
2023-03-19T07:06:25.251Z,11.60
2023-03-19T07:08:52.967Z,11.60
2023-03-19T07:11:20.746Z,11.70
2023-03-19T07:13:48.460Z,11.70
2023-03-19T07:16:16.287Z,11.90
2023-03-19T07:18:45.840Z,11.90
2023-03-19T07:21:13.702Z,12.10
2023-03-19T07:23:41.560Z,12.20
2023-03-19T07:26:09.468Z,12.30
2023-03-19T07:28:37.241Z,12.40
2023-03-19T07:31:05.555Z,12.40
2023-03-19T07:33:33.636Z,12.40
2023-03-19T07:36:03.253Z,12.40
2023-03-19T07:38:31.115Z,12.40
2023-03-19T07:41:02.707Z,12.50
2023-03-19T07:43:31.193Z,12.50
2023-03-19T07:45:59.259Z,12.50
2023-03-19T07:48:27.176Z,12.50
2023-03-19T07:50:55.157Z,12.50
2023-03-19T07:53:24.273Z,12.50
2023-03-19T07:55:52.019Z,12.50
2023-03-19T07:58:20.110Z,12.50
2023-03-19T08:00:48.535Z,12.60
2023-03-19T08:03:16.547Z,12.60
2023-03-19T08:05:44.321Z,12.60
2023-03-19T08:08:12.887Z,12.70
2023-03-19T08:10:42.155Z,12.70
2023-03-19T08:13:10.000Z,12.80
2023-03-19T08:15:37.812Z,12.80
2023-03-19T08:18:06.387Z,12.90
2023-03-19T08:20:34.379Z,12.90
2023-03-19T08:23:02.720Z,13.00
2023-03-19T08:25:32.557Z,13.10
2023-03-19T08:28:02.189Z,13.20
2023-03-19T08:30:30.092Z,13.30
2023-03-19T08:32:58.090Z,13.50
2023-03-19T08:35:27.205Z,13.60
2023-03-19T08:37:55.411Z,13.70
2023-03-19T08:40:23.752Z,13.80
2023-03-19T08:42:51.669Z,13.80
2023-03-19T08:45:21.742Z,13.80
2023-03-19T08:47:50.308Z,13.80
2023-03-19T08:50:18.530Z,13.80
2023-03-19T08:52:46.609Z,13.80
2023-03-19T08:55:14.425Z,13.80
2023-03-19T08:57:42.169Z,13.80
2023-03-19T09:00:11.500Z,13.80
2023-03-19T09:02:40.701Z,13.80
2023-03-19T09:05:09.464Z,13.90
2023-03-19T09:07:37.241Z,13.90
2023-03-19T09:10:05.601Z,14.00
2023-03-19T09:12:33.855Z,14.00
2023-03-19T09:15:01.606Z,14.20
2023-03-19T09:17:29.473Z,14.30
2023-03-19T09:19:58.691Z,14.40
2023-03-19T09:22:26.452Z,14.60
2023-03-19T09:24:54.199Z,14.70
2023-03-19T09:27:22.578Z,14.90
2023-03-19T09:29:50.827Z,15.00
2023-03-19T09:32:18.528Z,15.10
2023-03-19T09:34:47.195Z,15.20
2023-03-19T09:37:16.624Z,15.30
2023-03-19T09:39:44.535Z,15.40
2023-03-19T09:42:28.423Z,15.40
2023-03-19T09:44:56.434Z,15.50
2023-03-19T09:47:28.821Z,15.60
2023-03-19T09:49:59.273Z,15.60
2023-03-19T09:52:37.565Z,15.70
2023-03-19T09:55:13.383Z,15.70
2023-03-19T09:57:41.450Z,15.80
2023-03-19T10:00:22.348Z,15.70
2023-03-19T10:02:55.580Z,15.80
2023-03-19T10:05:30.923Z,15.80
2023-03-19T10:08:18.717Z,15.90
2023-03-19T10:11:10.159Z,16.00
2023-03-19T10:13:53.512Z,16.10
2023-03-19T10:16:24.890Z,16.20
2023-03-19T10:18:57.161Z,16.20
2023-03-19T10:21:30.344Z,16.20
2023-03-19T10:24:03.695Z,16.30
2023-03-19T10:26:35.397Z,16.30
2023-03-19T10:29:09.309Z,16.40
2023-03-19T10:31:48.443Z,16.50
2023-03-19T10:34:31.156Z,16.60
2023-03-19T10:37:05.194Z,16.80
2023-03-19T10:39:37.792Z,16.70
2023-03-19T10:42:22.861Z,16.70
2023-03-19T10:44:53.724Z,16.60
2023-03-19T10:47:26.895Z,16.50
2023-03-19T10:49:56.507Z,16.50
2023-03-19T10:52:29.747Z,16.40
2023-03-19T10:55:05.668Z,16.40
2023-03-19T10:57:34.403Z,16.40
2023-03-19T11:00:06.996Z,16.40
2023-03-19T11:02:36.886Z,16.50
2023-03-19T11:05:19.831Z,16.50
2023-03-19T11:07:51.425Z,16.60
2023-03-19T11:10:22.369Z,16.70
2023-03-19T11:12:56.582Z,16.70
2023-03-19T11:15:28.651Z,16.70
2023-03-19T11:18:01.106Z,16.70
2023-03-19T11:20:33.055Z,16.70
2023-03-19T11:23:03.986Z,16.70
2023-03-19T11:25:38.736Z,16.70
2023-03-19T11:28:09.949Z,16.80
2023-03-19T11:30:50.757Z,16.80
2023-03-19T11:33:44.970Z,16.80
2023-03-19T11:36:19.070Z,17.00
2023-03-19T11:39:00.608Z,17.10
2023-03-19T11:41:48.374Z,17.10
2023-03-19T11:44:21.323Z,17.00
2023-03-19T11:46:55.607Z,17.00
2023-03-19T11:49:55.550Z,16.90
2023-03-19T11:52:29.767Z,16.90
2023-03-19T11:55:13.455Z,16.80
2023-03-19T11:58:02.771Z,16.80
2023-03-19T12:00:34.686Z,16.80
2023-03-19T12:03:29.623Z,16.70
2023-03-19T12:06:00.978Z,16.70
2023-03-19T12:08:39.314Z,16.80
2023-03-19T12:11:20.703Z,16.80
2023-03-19T12:14:03.830Z,16.70
2023-03-19T12:16:46.562Z,16.70
2023-03-19T12:19:34.731Z,16.70
2023-03-19T12:22:13.454Z,16.70
2023-03-19T12:25:04.201Z,16.70
2023-03-19T12:27:36.586Z,16.60
2023-03-19T12:30:17.528Z,16.60
2023-03-19T12:33:01.396Z,16.60
2023-03-19T12:35:35.544Z,16.60
2023-03-19T12:38:11.780Z,16.60
2023-03-19T12:40:44.164Z,16.60
2023-03-19T12:43:25.980Z,16.60
2023-03-19T12:45:59.177Z,16.60
2023-03-19T12:48:30.679Z,16.60
2023-03-19T12:51:03.065Z,16.60
2023-03-19T12:53:41.716Z,16.60
2023-03-19T12:56:13.235Z,16.50
2023-03-19T12:58:54.069Z,16.40
2023-03-19T13:01:27.022Z,16.40
2023-03-19T13:03:59.199Z,16.30
2023-03-19T13:06:34.927Z,16.30
2023-03-19T13:09:06.979Z,16.20
2023-03-19T13:11:40.765Z,16.20
2023-03-19T13:14:18.110Z,16.20
2023-03-19T13:16:53.561Z,16.10
2023-03-19T13:19:29.475Z,16.10
2023-03-19T13:22:03.344Z,16.20
2023-03-19T13:24:33.586Z,16.20
2023-03-19T13:27:02.742Z,16.10
2023-03-19T13:29:32.066Z,16.10
2023-03-19T13:32:07.611Z,16.10
2023-03-19T13:34:36.523Z,16.00
2023-03-19T13:37:13.616Z,15.90
2023-03-19T13:39:42.522Z,15.80
2023-03-19T13:42:23.907Z,15.60
2023-03-19T13:44:55.047Z,15.50
2023-03-19T13:47:45.374Z,15.40
2023-03-19T13:50:26.325Z,15.30
2023-03-19T13:53:11.427Z,15.30
2023-03-19T13:55:49.462Z,15.30
2023-03-19T13:58:39.496Z,15.40
2023-03-19T14:01:09.443Z,15.40
2023-03-19T14:03:56.131Z,15.40
2023-03-19T14:06:37.608Z,15.40
2023-03-19T14:09:06.832Z,15.40
2023-03-19T14:11:38.068Z,15.40
2023-03-19T14:14:08.933Z,15.30
2023-03-19T14:16:42.146Z,15.30
2023-03-19T14:19:17.953Z,15.30
2023-03-19T14:22:02.503Z,15.20
2023-03-19T14:27:30.544Z,15.30
2023-03-19T14:30:00.930Z,15.30
2023-03-19T14:32:35.687Z,15.40
2023-03-19T14:35:08.164Z,15.50
2023-03-19T14:37:45.951Z,15.60
2023-03-19T14:40:17.662Z,15.60
2023-03-19T14:42:56.959Z,15.60
2023-03-19T14:45:58.238Z,15.60
2023-03-19T14:48:50.778Z,15.60
2023-03-19T14:51:54.227Z,15.60
2023-03-19T14:54:31.800Z,15.60
2023-03-19T14:56:59.668Z,15.50
2023-03-19T14:59:27.616Z,15.50
2023-03-19T15:01:55.511Z,15.40
2023-03-19T15:04:27.073Z,15.50
2023-03-19T15:06:59.189Z,15.50
2023-03-19T15:09:31.192Z,15.50
2023-03-19T15:12:20.687Z,15.50
2023-03-19T15:15:16.432Z,15.50
2023-03-19T15:17:49.188Z,15.50
2023-03-19T15:20:26.395Z,15.50
2023-03-19T15:23:02.134Z,15.40
2023-03-19T15:25:30.016Z,15.40
2023-03-19T15:28:13.657Z,15.40
2023-03-19T15:30:53.826Z,15.30
2023-03-19T15:33:39.811Z,15.30
2023-03-19T15:36:12.778Z,15.30
2023-03-19T15:38:47.500Z,15.30
2023-03-19T15:41:16.326Z,15.30
2023-03-19T15:43:44.846Z,15.30
2023-03-19T15:46:16.069Z,15.30
2023-03-19T15:48:47.926Z,15.30
2023-03-19T15:51:18.380Z,15.30
2023-03-19T15:53:48.153Z,15.20
2023-03-19T15:56:18.648Z,15.10
2023-03-19T15:58:48.594Z,15.10
2023-03-19T16:01:18.868Z,15.00
2023-03-19T16:03:51.493Z,14.90
2023-03-19T16:06:26.967Z,14.80
2023-03-19T16:08:58.133Z,14.70
2023-03-19T16:11:31.488Z,14.70
2023-03-19T16:14:00.445Z,14.70
2023-03-19T16:16:30.741Z,14.60
2023-03-19T16:18:59.744Z,14.60
2023-03-19T16:21:35.372Z,14.50
2023-03-19T16:24:14.212Z,14.50
2023-03-19T16:26:44.480Z,14.40
2023-03-19T16:29:21.153Z,14.40
2023-03-19T16:31:52.374Z,14.30
2023-03-19T16:34:27.848Z,14.30
2023-03-19T16:37:02.564Z,14.30
2023-03-19T16:39:49.307Z,14.20
2023-03-19T16:42:29.127Z,14.10
2023-03-19T16:44:57.477Z,14.00
2023-03-19T16:47:28.203Z,14.00
2023-03-19T16:49:55.925Z,13.90
2023-03-19T16:52:25.456Z,13.90
2023-03-19T16:54:55.930Z,13.80
2023-03-19T16:57:26.432Z,13.70
2023-03-19T16:59:54.286Z,13.60
2023-03-19T17:02:22.287Z,13.60
2023-03-19T17:04:50.110Z,13.60
2023-03-19T17:07:18.044Z,13.60
2023-03-19T17:09:45.865Z,13.50
2023-03-19T17:12:17.494Z,13.50
2023-03-19T17:14:47.003Z,13.40
2023-03-19T17:17:20.297Z,13.40
2023-03-19T17:19:48.556Z,13.30
2023-03-19T17:22:16.682Z,13.20
2023-03-19T17:24:45.014Z,13.10
2023-03-19T17:27:12.898Z,13.10
2023-03-19T17:29:42.056Z,13.00
2023-03-19T17:32:18.069Z,12.90
2023-03-19T17:34:46.152Z,12.80
2023-03-19T17:37:15.556Z,12.70
2023-03-19T17:39:45.945Z,12.60
2023-03-19T17:42:21.369Z,12.60
2023-03-19T17:44:50.550Z,12.60
2023-03-19T17:47:22.006Z,12.60
2023-03-19T17:49:52.873Z,12.60
2023-03-19T17:52:21.171Z,12.60
2023-03-19T17:54:49.253Z,12.60
2023-03-19T17:57:17.817Z,12.70
2023-03-19T17:59:45.638Z,12.70
2023-03-19T18:02:27.458Z,12.70
2023-03-19T18:04:56.296Z,12.70
2023-03-19T18:07:24.217Z,12.70
2023-03-19T18:09:52.049Z,12.70
2023-03-19T18:12:21.106Z,12.70
2023-03-19T18:14:53.045Z,12.60
2023-03-19T18:17:21.262Z,12.60
2023-03-19T18:19:52.249Z,12.50
2023-03-19T18:22:23.380Z,12.50
2023-03-19T18:24:55.451Z,12.40
2023-03-19T18:27:25.121Z,12.30
2023-03-19T18:29:52.885Z,12.20
2023-03-19T18:32:27.123Z,12.10
2023-03-19T18:34:59.197Z,12.10
2023-03-19T18:37:28.613Z,11.90
2023-03-19T18:39:56.329Z,11.80
2023-03-19T18:42:24.429Z,11.70
2023-03-19T18:44:53.297Z,11.60
2023-03-19T18:47:21.067Z,11.60
2023-03-19T18:49:49.350Z,11.50
2023-03-19T18:52:19.654Z,11.40
2023-03-19T18:54:47.678Z,11.30
2023-03-19T18:57:17.674Z,11.30
2023-03-19T18:59:48.726Z,11.20
2023-03-19T19:02:25.780Z,11.20
2023-03-19T19:04:53.781Z,11.10
2023-03-19T19:07:22.892Z,11.10
2023-03-19T19:09:50.936Z,11.10
2023-03-19T19:12:19.094Z,11.10
2023-03-19T19:14:48.478Z,11.10
2023-03-19T19:17:19.284Z,11.10
2023-03-19T19:19:47.210Z,11.10
2023-03-19T19:22:16.887Z,11.10
2023-03-19T19:24:47.709Z,11.10
2023-03-19T19:27:18.760Z,11.20
2023-03-19T19:29:47.322Z,11.20
2023-03-19T19:32:20.631Z,11.20
2023-03-19T19:34:48.440Z,11.20
2023-03-19T19:37:18.710Z,11.20
2023-03-19T19:39:48.332Z,11.20
2023-03-19T19:42:18.107Z,11.10
2023-03-19T19:44:51.921Z,11.10
2023-03-19T19:47:20.220Z,11.00
2023-03-19T19:49:49.231Z,11.00
2023-03-19T19:52:19.022Z,10.90
2023-03-19T19:54:48.653Z,10.90
2023-03-19T19:57:23.134Z,10.80
2023-03-19T19:59:51.856Z,10.80
2023-03-19T20:02:25.013Z,10.70
2023-03-19T20:04:53.807Z,10.70
2023-03-19T20:07:21.636Z,10.70
2023-03-19T20:09:51.363Z,10.60
2023-03-19T20:12:27.043Z,10.60
2023-03-19T20:14:55.256Z,10.60
2023-03-19T20:17:23.004Z,10.50
2023-03-19T20:19:51.452Z,10.50
2023-03-19T20:22:19.482Z,10.40
2023-03-19T20:24:50.833Z,10.40
2023-03-19T20:27:22.941Z,10.40
2023-03-19T20:29:53.734Z,10.30
2023-03-19T20:32:28.668Z,10.40
2023-03-19T20:34:56.692Z,10.40
2023-03-19T20:37:24.429Z,10.30
2023-03-19T20:39:52.231Z,10.30
2023-03-19T20:42:21.623Z,10.30
2023-03-19T20:44:50.286Z,10.30
2023-03-19T20:47:20.533Z,10.30
2023-03-19T20:49:48.920Z,10.20
2023-03-19T20:52:16.985Z,10.20
2023-03-19T20:54:44.793Z,10.20
2023-03-19T20:57:17.850Z,10.20
2023-03-19T20:59:48.501Z,10.20
2023-03-19T21:02:17.584Z,10.20
2023-03-19T21:04:46.435Z,10.20
2023-03-19T21:07:30.743Z,10.30
2023-03-19T21:09:59.161Z,10.20
2023-03-19T21:12:33.189Z,10.30
2023-03-19T21:15:06.372Z,10.20
2023-03-19T21:17:34.551Z,10.30
2023-03-19T21:20:02.587Z,10.30
2023-03-19T21:22:31.918Z,10.30
2023-03-19T21:25:04.305Z,10.30
2023-03-19T21:27:34.902Z,10.20
2023-03-19T21:30:05.212Z,10.20
2023-03-19T21:32:33.053Z,10.20
2023-03-19T21:35:00.997Z,10.30
2023-03-19T21:37:28.824Z,10.20
2023-03-19T21:39:56.634Z,10.30
2023-03-19T21:42:24.904Z,10.30
2023-03-19T21:44:59.294Z,10.30
2023-03-19T21:47:28.936Z,10.30
2023-03-19T21:50:00.171Z,10.30
2023-03-19T21:52:28.034Z,10.30
2023-03-19T21:54:55.993Z,10.40
2023-03-19T21:57:24.477Z,10.40
2023-03-19T21:59:53.141Z,10.40
2023-03-19T22:02:41.000Z,10.40
2023-03-19T22:05:24.048Z,10.40
2023-03-19T22:07:53.135Z,10.30
2023-03-19T22:10:23.311Z,10.40
2023-03-19T22:12:51.667Z,10.40
2023-03-19T22:15:29.865Z,10.30
2023-03-19T22:17:59.863Z,10.40
2023-03-19T22:20:28.776Z,10.30
2023-03-19T22:22:58.239Z,10.40
2023-03-19T22:25:30.392Z,10.40
2023-03-19T22:27:59.424Z,10.40
2023-03-19T22:30:33.499Z,10.40
2023-03-19T22:33:04.999Z,10.40
2023-03-19T22:35:36.415Z,10.40
2023-03-19T22:38:04.316Z,10.40
2023-03-19T22:40:32.318Z,10.40
2023-03-19T22:43:00.307Z,10.50
2023-03-19T22:45:32.132Z,10.50
2023-03-19T22:48:05.429Z,10.50
2023-03-19T22:50:33.763Z,10.50
2023-03-19T22:53:02.044Z,10.50
2023-03-19T22:55:30.092Z,10.50
2023-03-19T22:57:57.889Z,10.50
2023-03-19T23:00:26.508Z,10.50
2023-03-19T23:02:57.387Z,10.50
2023-03-19T23:05:33.315Z,10.50
2023-03-19T23:08:03.733Z,10.50
2023-03-19T23:10:35.887Z,10.50
2023-03-19T23:13:03.784Z,10.50
2023-03-19T23:15:32.798Z,10.50
2023-03-19T23:18:02.271Z,10.50
2023-03-19T23:20:33.899Z,10.50
2023-03-19T23:23:02.140Z,10.40
2023-03-19T23:25:31.240Z,10.50
2023-03-19T23:28:02.277Z,10.40
2023-03-19T23:30:32.227Z,10.40
2023-03-19T23:33:01.894Z,10.40
2023-03-19T23:35:32.177Z,10.40
2023-03-19T23:38:01.954Z,10.40
2023-03-19T23:40:33.029Z,10.50
2023-03-19T23:43:02.431Z,10.40
2023-03-19T23:45:34.526Z,10.40
2023-03-19T23:48:05.222Z,10.40
2023-03-19T23:50:34.997Z,10.50
2023-03-19T23:53:02.777Z,10.40
2023-03-19T23:55:31.074Z,10.40
2023-03-19T23:57:59.687Z,10.40
